Hovedside
METAR-TAF:

METAR-TAF

Lufthavner :

Rygge, Norge

Moss lufthavn. Rygge

breddegrad: 59-23N, lengdegrad: 010-47E, høyde over havet: 5 m

Gjeldene værobservasjon

Denne rapporten ble laget for 38 minutter siden, klokken 06:50 UTC
Vind 6 kt fra Sørvest
Temperatur 11°C
Luftfuktighet 54%
Trykk 1013 hPa
Sikt 10 km eller mer

METAR: ENRY 210650Z AUTO 23006KT 9999NDV NCD 11/02 Q1013

Tid: 09:28 (07:28 UTC)

Varsel

Varsel gyldig fra 21. klokken 06 UTC til 22. klokken 06 UTC
Vind 5 kt fra Sørvest
Sikt 10 km eller mer
Få skyer i en høyde av 200 ft
Blir
fra 21. klokken 12 UTC til 21. klokken 14 UTC
Vind 10 kt fra Nordvest

TAF: ENRY 2106/2206 23005KT 9999 FEW002 BECMG 2112/2114 31010KT

Værobservasjoner og værvarsel for over 4000 flyplasser (METAR- og TAF-rapporter).

Tilgjengelige stasjoner er representert av de røde og gule prikkene på kartet.

Hold musepekeren over prikken for å se navnet på stasjonen.

Klikk så for å se værobservasjoner og -varsler.

For å forandre kartet kan du klikke på den grønne knappen med svart kryss for å zoome inn, på den grønne knappen med strek for å zoome ut, eller på de grønne pilene for å se tilstøtende kart.


METAR-TAF: